NCAR-RAP Real-Time Weather Data

Output produced by METARs form (24 April 2018  16:13 UTC)
found at http://weather.rap.ucar.edu/surface/
 
ROIG 241100Z 01009KT 9999 -SHRA FEW007 SCT011 BKN090 22/22 Q1010
ROIG 241021Z 01010KT 9999 -SHRA FEW007 SCT011 BKN080 22/22 Q1009 RMK 1ST007 3CU011 6AC080 A2982
ROIG 241000Z 01009KT 9999 TSRA FEW007 SCT020 FEW025CB BKN070 22/22 Q1009
ROIG 240933Z 01010KT 9999 TSRA FEW007 SCT010 FEW025CB BKN030 23/23 Q1009 RMK 1ST007 3CU010 2CB025 5CU030 A2980 FBL TS 10KM SE-SW MOV E
ROIG 240925Z 01010KT 9999 R04/1200VP1800U TSRA FEW006 SCT012 FEW025CB BKN030 23/23 Q1009 RMK 1ST006 3CU012 2CB025 5CU030 A2980 FBL TS 10KM SE-SW MOV E
ROIG 240918Z 36010KT 9999 R04/1200VP1800D +TSRA FEW006 SCT012 FEW025CB BKN030 23/23 Q1009 RMK 1ST006 3CU012 1CB025 5CU030 A2980 FBL TS 10KM S MOV E
ROIG 240910Z 01011KT 9999 -TSRA FEW006 SCT012 FEW025CB BKN030 23/23 Q1008 RMK 1ST006 3CU012 1CB025 5CU030 A2979 P/RR FBL TS 10KM S MOV E
ROIG 240900Z 36010KT 7000 R04/1100VP1800D TSRA FEW006 SCT012 FEW025CB BKN030 23/23 Q1008
ROIG 240842Z 36013KT 7000 R04/0600VP1800U TSRA FEW006 SCT020 FEW025CB BKN030 23/23 Q1007 RMK 1ST006 3CU020 1CB025 5CU030 A2976 FBL TS OHD MOV E
ROIG 240834Z 36012KT 0500 R04/0400V1800D +TSRA FEW006 SCT020 FEW025CB BKN030 23/23 Q1007 RMK 1ST006 3CU020 1CB025 5CU030 A2975 FBL TS OHD MOV E
ROIG 240830Z 33013G29KT 290V010 0500 R04/0550VP1800D +TSRA FEW006 SCT020 FEW025CB BKN030 23/23 Q1008 RMK 1ST006 3CU020 1CB025 5CU030 A2978 FBL TS OHD MOV E RI++
ROIG 240825Z 33017G29KT 5000 +TSRA FEW006 SCT020 FEW025CB BKN030 23/23 Q1007 RMK 1ST006 3CU020 1CB025 5CU030 A2976 FBL TS 10KM NW MOV E RI++
ROIG 240800Z 20009KT 9999 -TSRA FEW009 SCT020 FEW025CB BKN030 26/26 Q1007
ROIG 240742Z 20010KT 9999 TS FEW009 SCT012 FEW025CB BKN030 26/26 Q1007 RMK 1CU009 3CU012 1CB025 5CU030 A2974 CB 10KM NW MOV E
ROIG 240700Z 21012KT 9999 FEW009 SCT012 BKN032 26/26 Q1007
ROIG 240600Z 20014KT 9999 FEW009 SCT015 BKN036 28/26 Q1008
ROIG 240500Z 21012KT 9999 FEW009 SCT015 BKN048 27/26 Q1008
ROIG 240400Z 20015KT 9999 FEW010 SCT015 BKN050 28/26 Q1008
ROIG 240300Z 21014KT 9999 FEW010 SCT015 BKN/// 29/26 Q1009
ROIG 240200Z 21011KT 9999 FEW009 SCT015 BKN036 28/27 Q1010
ROIG 240100Z 19009KT 9999 FEW006 SCT014 BKN036 27/27 Q1010
ROIG 240000Z 19009KT 9999 FEW004 SCT007 BKN013 26/26 Q1010
ROIG 232343Z 18009KT 9999 FEW003 SCT005 BKN013 26/26 Q1010 RMK 2ST003 4ST005 6CU013 A2983
ROIG 232332Z 19009KT 9999 FEW003 BKN005 BKN011 26/26 Q1010 RMK 2ST003 5ST005 6CU011 A2982
ROIG 232300Z 18008KT 9000 FEW002 BKN003 25/25 Q1010
ROIG 232200Z 17007KT 7000 SCT002 BKN004 25/25 Q1009
ROIG 232134Z 18007KT 9999 FEW002 SCT004 BKN010 25/25 Q1009 RMK 1ST002 4ST004 5CU010 A2980
ROIG 232100Z 18006KT 8000 BKN003 BKN006 24/24 Q1009
ROIG 232030Z 18006KT 8000 FEW002 BKN003 25/25 Q1009 RMK 1ST002 7ST003 A2980
ROIG 231100Z 16006KT 9999 SCT003 BKN005 BKN011 25/25 Q1010
ROIG 231000Z 17007KT 130V190 9999 FEW003 SCT006 BKN011 25/25 Q1010
ROIG 230900Z 15007KT 120V180 9999 VCSH FEW004 BKN014 BKN050 25/25 Q1009
ROIG 230800Z 15009KT 9999 VCSH FEW007 SCT014 BKN050 26/24 Q1009
ROIG 230700Z 15008KT 120V180 9999 FEW008 SCT016 BKN050 27/24 Q1010
ROIG 230600Z 15009KT 9999 FEW008 BKN050 27/25 Q1010
ROIG 230500Z 15009KT 9999 FEW006 SCT013 BKN050 27/25 Q1010
ROIG 230400Z 15011KT 9999 FEW007 SCT012 28/25 Q1011
ROIG 230300Z 13010KT 9999 SCT005 BKN010 27/25 Q1011
ROIG 230200Z 13010KT 9999 FEW010 27/25 Q1012
ROIG 230100Z 13008KT 9999 FEW016 SCT/// 26/25 Q1012
ROIG 230000Z 13007KT 9999 FEW012 SCT/// 26/24 Q1012
ROIG 222300Z 14005KT 9999 FEW005 SCT015 BKN035 24/24 Q1012
ROIG 222225Z 13007KT 9999 FEW004 SCT006 BKN011 24/24 Q1012 RMK 2ST004 4ST006 5CU011 A2989
ROIG 222200Z 13005KT 9999 FEW004 SCT007 BKN009 24/24 Q1011
ROIG 222100Z VRB02KT 9000 FEW004 SCT006 BKN008 24/24 Q1010
ROIG 222030Z 16004KT 9999 FEW004 SCT007 BKN009 24/24 Q1010 RMK 1ST004 3ST007 5CU009 A2985
ROIG 221121Z 11006KT 9999 FEW003 BKN005 24/24 Q1012 RMK 2ST003 6ST005 A2989
ROIG 221100Z 12006KT 9999 FEW003 SCT005 BKN035 24/24 Q1012
ROIG 221035Z 13007KT 9999 FEW003 SCT005 BKN035 24/24 Q1012 RMK 1ST003 3ST005 5CU035 A2988
ROIG 221000Z 13007KT 9999 FEW002 BKN005 BKN025 24/24 Q1011
ROIG 220900Z 13006KT 090V150 9999 SCT002 BKN004 BKN007 25/25 Q1011
ROIG 220800Z 12008KT 080V140 9999 SCT002 BKN004 25/25 Q1011
ROIG 220700Z 13007KT 9999 FEW003 BKN005 25/25 Q1012
ROIG 220624Z 13007KT 7000 FEW001 BKN003 25/24 Q1012 RMK 2ST001 7ST003 A2989
ROIG 220611Z 11008KT 9000 FEW003 BKN005 BKN011 25/25 Q1012 RMK 2ST003 6ST005 7CU011 A2989
ROIG 220600Z 11007KT 9999 -SHRA FEW004 BKN007 BKN012 25/24 Q1012
ROIG 220539Z 14006KT 070V240 9999 FEW005 BKN009 BKN015 25/24 Q1012 RMK 2ST005 5CU009 7CU015 A2990
ROIG 220500Z 16008KT 130V190 9999 FEW005 SCT007 BKN014 26/24 Q1013